sensor_id;sensor_type;location;lat;lon;timestamp;P1;durP1;ratioP1;P2;durP2;ratioP2
11171;SDS011;5642;50.830;12.082;2023-11-21T00:00:41;1.30;;;1.20;;
11171;SDS011;5642;50.830;12.082;2023-11-21T00:03:09;1.13;;;1.08;;
11171;SDS011;5642;50.830;12.082;2023-11-21T00:05:37;1.15;;;1.08;;
11171;SDS011;5642;50.830;12.082;2023-11-21T00:08:08;1.17;;;1.10;;
11171;SDS011;5642;50.830;12.082;2023-11-21T00:10:35;1.00;;;1.00;;
11171;SDS011;5642;50.830;12.082;2023-11-21T00:13:01;1.52;;;1.38;;
11171;SDS011;5642;50.830;12.082;2023-11-21T00:15:28;1.63;;;1.40;;
11171;SDS011;5642;50.830;12.082;2023-11-21T00:17:56;1.30;;;1.20;;
11171;SDS011;5642;50.830;12.082;2023-11-21T00:20:24;1.23;;;1.13;;
11171;SDS011;5642;50.830;12.082;2023-11-21T00:22:51;1.60;;;1.50;;
11171;SDS011;5642;50.830;12.082;2023-11-21T00:25:19;1.40;;;1.30;;
11171;SDS011;5642;50.830;12.082;2023-11-21T00:27:45;1.25;;;1.15;;
11171;SDS011;5642;50.830;12.082;2023-11-21T00:30:12;1.73;;;1.30;;
11171;SDS011;5642;50.830;12.082;2023-11-21T00:32:40;1.63;;;1.25;;
11171;SDS011;5642;50.830;12.082;2023-11-21T00:35:06;1.80;;;1.30;;
11171;SDS011;5642;50.830;12.082;2023-11-21T00:37:32;1.52;;;1.42;;
11171;SDS011;5642;50.830;12.082;2023-11-21T00:39:59;1.60;;;1.50;;
11171;SDS011;5642;50.830;12.082;2023-11-21T00:42:25;1.40;;;1.30;;
11171;SDS011;5642;50.830;12.082;2023-11-21T00:44:51;1.60;;;1.50;;
11171;SDS011;5642;50.830;12.082;2023-11-21T00:47:18;1.63;;;1.52;;
11171;SDS011;5642;50.830;12.082;2023-11-21T00:49:44;1.80;;;1.70;;
11171;SDS011;5642;50.830;12.082;2023-11-21T00:52:11;1.52;;;1.42;;
11171;SDS011;5642;50.830;12.082;2023-11-21T00:54:37;1.33;;;1.23;;
11171;SDS011;5642;50.830;12.082;2023-11-21T00:57:09;1.27;;;1.17;;
11171;SDS011;5642;50.830;12.082;2023-11-21T00:59:45;1.10;;;1.10;;
11171;SDS011;5642;50.830;12.082;2023-11-21T01:02:11;1.25;;;1.15;;
11171;SDS011;5642;50.830;12.082;2023-11-21T01:04:38;1.60;;;1.50;;
11171;SDS011;5642;50.830;12.082;2023-11-21T01:07:04;1.73;;;1.50;;
11171;SDS011;5642;50.830;12.082;2023-11-21T01:09:31;1.50;;;1.40;;
11171;SDS011;5642;50.830;12.082;2023-11-21T01:11:57;1.95;;;1.48;;
11171;SDS011;5642;50.830;12.082;2023-11-21T01:14:26;1.75;;;1.45;;
11171;SDS011;5642;50.830;12.082;2023-11-21T01:16:53;1.55;;;1.45;;
11171;SDS011;5642;50.830;12.082;2023-11-21T01:19:19;1.30;;;1.20;;
11171;SDS011;5642;50.830;12.082;2023-11-21T01:21:45;1.10;;;1.05;;
11171;SDS011;5642;50.830;12.082;2023-11-21T01:24:12;1.27;;;1.20;;
11171;SDS011;5642;50.830;12.082;2023-11-21T01:26:39;1.42;;;1.20;;
11171;SDS011;5642;50.830;12.082;2023-11-21T01:29:05;1.10;;;1.10;;
11171;SDS011;5642;50.830;12.082;2023-11-21T01:31:36;1.30;;;1.20;;
11171;SDS011;5642;50.830;12.082;2023-11-21T01:34:02;1.45;;;1.27;;
11171;SDS011;5642;50.830;12.082;2023-11-21T01:36:32;1.75;;;1.50;;
11171;SDS011;5642;50.830;12.082;2023-11-21T01:38:59;2.95;;;1.45;;
11171;SDS011;5642;50.830;12.082;2023-11-21T01:41:26;2.03;;;1.63;;
11171;SDS011;5642;50.830;12.082;2023-11-21T01:43:54;2.17;;;1.52;;
11171;SDS011;5642;50.830;12.082;2023-11-21T01:46:21;1.30;;;1.20;;
11171;SDS011;5642;50.830;12.082;2023-11-21T01:48:49;1.70;;;1.60;;
11171;SDS011;5642;50.830;12.082;2023-11-21T01:51:16;1.60;;;1.50;;
11171;SDS011;5642;50.830;12.082;2023-11-21T01:53:44;1.38;;;1.27;;
11171;SDS011;5642;50.830;12.082;2023-11-21T01:56:16;2.47;;;1.40;;
11171;SDS011;5642;50.830;12.082;2023-11-21T01:58:43;1.45;;;1.27;;
11171;SDS011;5642;50.830;12.082;2023-11-21T02:01:11;1.70;;;1.58;;
11171;SDS011;5642;50.830;12.082;2023-11-21T02:03:37;1.55;;;1.30;;
11171;SDS011;5642;50.830;12.082;2023-11-21T02:06:07;2.28;;;1.65;;
11171;SDS011;5642;50.830;12.082;2023-11-21T02:08:34;1.40;;;1.30;;
11171;SDS011;5642;50.830;12.082;2023-11-21T02:11:05;1.38;;;1.20;;
11171;SDS011;5642;50.830;12.082;2023-11-21T02:13:32;1.60;;;1.50;;
11171;SDS011;5642;50.830;12.082;2023-11-21T02:16:00;1.42;;;1.33;;
11171;SDS011;5642;50.830;12.082;2023-11-21T02:18:27;1.23;;;1.13;;
11171;SDS011;5642;50.830;12.082;2023-11-21T02:20:55;1.33;;;1.23;;
11171;SDS011;5642;50.830;12.082;2023-11-21T02:23:23;2.17;;;1.30;;
11171;SDS011;5642;50.830;12.082;2023-11-21T02:25:57;3.40;;;1.35;;
11171;SDS011;5642;50.830;12.082;2023-11-21T02:28:29;1.35;;;1.20;;
11171;SDS011;5642;50.830;12.082;2023-11-21T02:31:05;1.40;;;1.30;;
11171;SDS011;5642;50.830;12.082;2023-11-21T02:33:31;1.40;;;1.30;;
11171;SDS011;5642;50.830;12.082;2023-11-21T02:36:00;1.90;;;1.50;;
11171;SDS011;5642;50.830;12.082;2023-11-21T02:38:28;1.48;;;1.38;;
11171;SDS011;5642;50.830;12.082;2023-11-21T02:40:55;1.60;;;1.40;;
11171;SDS011;5642;50.830;12.082;2023-11-21T02:43:25;2.05;;;1.35;;
11171;SDS011;5642;50.830;12.082;2023-11-21T02:45:52;1.52;;;1.27;;
11171;SDS011;5642;50.830;12.082;2023-11-21T02:48:18;1.50;;;1.40;;
11171;SDS011;5642;50.830;12.082;2023-11-21T02:50:44;1.25;;;1.00;;
11171;SDS011;5642;50.830;12.082;2023-11-21T02:53:10;1.30;;;1.20;;
11171;SDS011;5642;50.830;12.082;2023-11-21T02:55:37;2.72;;;1.67;;
11171;SDS011;5642;50.830;12.082;2023-11-21T02:58:03;2.03;;;1.58;;
11171;SDS011;5642;50.830;12.082;2023-11-21T03:00:30;2.35;;;1.98;;
11171;SDS011;5642;50.830;12.082;2023-11-21T03:02:57;2.65;;;2.00;;
11171;SDS011;5642;50.830;12.082;2023-11-21T03:05:25;2.10;;;1.70;;
11171;SDS011;5642;50.830;12.082;2023-11-21T03:07:51;1.98;;;1.77;;
11171;SDS011;5642;50.830;12.082;2023-11-21T03:10:17;1.63;;;1.52;;
11171;SDS011;5642;50.830;12.082;2023-11-21T03:12:45;1.42;;;1.33;;
11171;SDS011;5642;50.830;12.082;2023-11-21T03:15:13;1.70;;;1.60;;
11171;SDS011;5642;50.830;12.082;2023-11-21T03:17:39;1.67;;;1.55;;
11171;SDS011;5642;50.830;12.082;2023-11-21T03:20:06;2.17;;;1.98;;
11171;SDS011;5642;50.830;12.082;2023-11-21T03:22:36;2.03;;;1.75;;
11171;SDS011;5642;50.830;12.082;2023-11-21T03:25:04;1.92;;;1.63;;
11171;SDS011;5642;50.830;12.082;2023-11-21T03:27:34;1.55;;;1.45;;
11171;SDS011;5642;50.830;12.082;2023-11-21T03:30:00;1.55;;;1.42;;
11171;SDS011;5642;50.830;12.082;2023-11-21T03:32:33;1.50;;;1.40;;
11171;SDS011;5642;50.830;12.082;2023-11-21T03:34:59;2.35;;;2.03;;
11171;SDS011;5642;50.830;12.082;2023-11-21T03:37:25;2.33;;;1.80;;
11171;SDS011;5642;50.830;12.082;2023-11-21T03:39:54;1.77;;;1.67;;
11171;SDS011;5642;50.830;12.082;2023-11-21T03:42:27;1.80;;;1.60;;
11171;SDS011;5642;50.830;12.082;2023-11-21T03:44:58;1.67;;;1.58;;
11171;SDS011;5642;50.830;12.082;2023-11-21T03:47:26;1.67;;;1.30;;
11171;SDS011;5642;50.830;12.082;2023-11-21T03:49:53;1.20;;;1.10;;
11171;SDS011;5642;50.830;12.082;2023-11-21T03:52:19;1.85;;;1.50;;
11171;SDS011;5642;50.830;12.082;2023-11-21T03:54:45;1.30;;;1.20;;
11171;SDS011;5642;50.830;12.082;2023-11-21T03:57:12;1.13;;;1.00;;
11171;SDS011;5642;50.830;12.082;2023-11-21T03:59:44;1.02;;;1.00;;
11171;SDS011;5642;50.830;12.082;2023-11-21T04:02:11;1.30;;;1.20;;
11171;SDS011;5642;50.830;12.082;2023-11-21T04:04:38;1.42;;;1.13;;
11171;SDS011;5642;50.830;12.082;2023-11-21T04:07:05;1.00;;;1.00;;
11171;SDS011;5642;50.830;12.082;2023-11-21T04:09:31;1.10;;;0.93;;
11171;SDS011;5642;50.830;12.082;2023-11-21T04:11:57;1.02;;;1.00;;
11171;SDS011;5642;50.830;12.082;2023-11-21T04:14:32;0.73;;;0.73;;
11171;SDS011;5642;50.830;12.082;2023-11-21T04:16:58;1.00;;;0.80;;
11171;SDS011;5642;50.830;12.082;2023-11-21T04:19:24;0.70;;;0.70;;
11171;SDS011;5642;50.830;12.082;2023-11-21T04:21:51;1.55;;;0.90;;
11171;SDS011;5642;50.830;12.082;2023-11-21T04:24:22;0.80;;;0.80;;
11171;SDS011;5642;50.830;12.082;2023-11-21T04:26:54;0.80;;;0.80;;
11171;SDS011;5642;50.830;12.082;2023-11-21T04:29:22;0.60;;;0.60;;
11171;SDS011;5642;50.830;12.082;2023-11-21T04:31:48;0.88;;;0.82;;
11171;SDS011;5642;50.830;12.082;2023-11-21T04:34:14;0.95;;;0.80;;
11171;SDS011;5642;50.830;12.082;2023-11-21T04:36:43;0.70;;;0.70;;
11171;SDS011;5642;50.830;12.082;2023-11-21T04:39:09;0.80;;;0.80;;
11171;SDS011;5642;50.830;12.082;2023-11-21T04:41:43;1.00;;;0.80;;
11171;SDS011;5642;50.830;12.082;2023-11-21T04:44:09;0.70;;;0.70;;
11171;SDS011;5642;50.830;12.082;2023-11-21T04:46:35;0.88;;;0.88;;
11171;SDS011;5642;50.830;12.082;2023-11-21T04:49:02;0.73;;;0.73;;
11171;SDS011;5642;50.830;12.082;2023-11-21T04:51:29;1.38;;;1.00;;
11171;SDS011;5642;50.830;12.082;2023-11-21T04:53:55;0.80;;;0.80;;
11171;SDS011;5642;50.830;12.082;2023-11-21T04:56:22;0.90;;;0.73;;
11171;SDS011;5642;50.830;12.082;2023-11-21T04:58:51;0.68;;;0.68;;
11171;SDS011;5642;50.830;12.082;2023-11-21T05:01:18;0.90;;;0.70;;
11171;SDS011;5642;50.830;12.082;2023-11-21T05:03:44;0.80;;;0.80;;
11171;SDS011;5642;50.830;12.082;2023-11-21T05:06:12;0.95;;;0.90;;
11171;SDS011;5642;50.830;12.082;2023-11-21T05:08:41;0.90;;;0.90;;
11171;SDS011;5642;50.830;12.082;2023-11-21T05:11:08;0.95;;;0.80;;
11171;SDS011;5642;50.830;12.082;2023-11-21T05:13:36;0.80;;;0.70;;
11171;SDS011;5642;50.830;12.082;2023-11-21T05:16:06;1.13;;;1.10;;
11171;SDS011;5642;50.830;12.082;2023-11-21T05:18:33;0.98;;;0.80;;
11171;SDS011;5642;50.830;12.082;2023-11-21T05:21:00;0.90;;;0.90;;
11171;SDS011;5642;50.830;12.082;2023-11-21T05:23:28;3.20;;;0.95;;
11171;SDS011;5642;50.830;12.082;2023-11-21T05:25:54;1.02;;;0.93;;
11171;SDS011;5642;50.830;12.082;2023-11-21T05:28:22;1.27;;;1.17;;
11171;SDS011;5642;50.830;12.082;2023-11-21T05:30:50;1.42;;;1.20;;
11171;SDS011;5642;50.830;12.082;2023-11-21T05:33:18;1.40;;;1.30;;
11171;SDS011;5642;50.830;12.082;2023-11-21T05:35:45;0.90;;;0.90;;
11171;SDS011;5642;50.830;12.082;2023-11-21T05:38:12;0.90;;;0.90;;
11171;SDS011;5642;50.830;12.082;2023-11-21T05:40:39;1.00;;;1.00;;
11171;SDS011;5642;50.830;12.082;2023-11-21T05:43:09;1.00;;;1.00;;
11171;SDS011;5642;50.830;12.082;2023-11-21T05:45:36;1.60;;;1.50;;
11171;SDS011;5642;50.830;12.082;2023-11-21T05:48:06;1.42;;;1.33;;
11171;SDS011;5642;50.830;12.082;2023-11-21T05:50:33;1.45;;;1.35;;
11171;SDS011;5642;50.830;12.082;2023-11-21T05:52:59;2.13;;;1.10;;
11171;SDS011;5642;50.830;12.082;2023-11-21T05:55:33;1.13;;;1.02;;
11171;SDS011;5642;50.830;12.082;2023-11-21T05:58:03;1.15;;;1.02;;
11171;SDS011;5642;50.830;12.082;2023-11-21T06:00:32;0.80;;;0.80;;
11171;SDS011;5642;50.830;12.082;2023-11-21T06:03:00;1.20;;;0.93;;
11171;SDS011;5642;50.830;12.082;2023-11-21T06:05:30;1.55;;;1.00;;
11171;SDS011;5642;50.830;12.082;2023-11-21T06:07:58;0.90;;;0.90;;
11171;SDS011;5642;50.830;12.082;2023-11-21T06:10:27;0.93;;;0.93;;
11171;SDS011;5642;50.830;12.082;2023-11-21T06:12:54;1.35;;;0.90;;
11171;SDS011;5642;50.830;12.082;2023-11-21T06:15:22;0.85;;;0.85;;
11171;SDS011;5642;50.830;12.082;2023-11-21T06:17:55;1.10;;;1.00;;
11171;SDS011;5642;50.830;12.082;2023-11-21T06:20:25;1.13;;;1.10;;
11171;SDS011;5642;50.830;12.082;2023-11-21T06:22:55;0.80;;;0.80;;
11171;SDS011;5642;50.830;12.082;2023-11-21T06:25:21;0.93;;;0.93;;
11171;SDS011;5642;50.830;12.082;2023-11-21T06:27:48;1.38;;;1.00;;
11171;SDS011;5642;50.830;12.082;2023-11-21T06:30:18;1.02;;;0.93;;
11171;SDS011;5642;50.830;12.082;2023-11-21T06:32:49;0.93;;;0.90;;
11171;SDS011;5642;50.830;12.082;2023-11-21T06:35:21;0.90;;;0.90;;
11171;SDS011;5642;50.830;12.082;2023-11-21T06:37:49;1.00;;;0.90;;
11171;SDS011;5642;50.830;12.082;2023-11-21T06:40:19;1.48;;;1.10;;
11171;SDS011;5642;50.830;12.082;2023-11-21T06:42:47;1.88;;;0.95;;
11171;SDS011;5642;50.830;12.082;2023-11-21T06:45:23;1.00;;;0.90;;
11171;SDS011;5642;50.830;12.082;2023-11-21T06:47:51;1.20;;;1.10;;
11171;SDS011;5642;50.830;12.082;2023-11-21T06:50:17;1.10;;;1.10;;
11171;SDS011;5642;50.830;12.082;2023-11-21T06:52:45;0.90;;;0.90;;
11171;SDS011;5642;50.830;12.082;2023-11-21T06:55:12;1.70;;;1.60;;
11171;SDS011;5642;50.830;12.082;2023-11-21T06:57:38;1.23;;;1.13;;
11171;SDS011;5642;50.830;12.082;2023-11-21T07:00:06;1.88;;;1.67;;
11171;SDS011;5642;50.830;12.082;2023-11-21T07:02:36;1.52;;;1.42;;
11171;SDS011;5642;50.830;12.082;2023-11-21T07:05:06;1.67;;;1.50;;
11171;SDS011;5642;50.830;12.082;2023-11-21T07:07:38;2.17;;;1.60;;
11171;SDS011;5642;50.830;12.082;2023-11-21T07:10:05;1.40;;;1.30;;
11171;SDS011;5642;50.830;12.082;2023-11-21T07:12:34;1.10;;;1.00;;
11171;SDS011;5642;50.830;12.082;2023-11-21T07:15:01;1.40;;;1.30;;
11171;SDS011;5642;50.830;12.082;2023-11-21T07:17:28;1.38;;;1.27;;
11171;SDS011;5642;50.830;12.082;2023-11-21T07:19:56;1.40;;;1.30;;
11171;SDS011;5642;50.830;12.082;2023-11-21T07:22:25;1.50;;;1.40;;
11171;SDS011;5642;50.830;12.082;2023-11-21T07:24:57;1.17;;;1.08;;
11171;SDS011;5642;50.830;12.082;2023-11-21T07:27:28;1.13;;;1.13;;
11171;SDS011;5642;50.830;12.082;2023-11-21T07:30:01;1.27;;;1.17;;
11171;SDS011;5642;50.830;12.082;2023-11-21T07:32:31;1.40;;;1.30;;
11171;SDS011;5642;50.830;12.082;2023-11-21T07:35:02;1.38;;;1.08;;
11171;SDS011;5642;50.830;12.082;2023-11-21T07:40:28;1.27;;;1.13;;
11171;SDS011;5642;50.830;12.082;2023-11-21T07:43:09;1.27;;;1.20;;
11171;SDS011;5642;50.830;12.082;2023-11-21T07:45:42;1.65;;;1.55;;
11171;SDS011;5642;50.830;12.082;2023-11-21T07:48:11;1.70;;;1.60;;
11171;SDS011;5642;50.830;12.082;2023-11-21T07:50:37;1.60;;;1.50;;
11171;SDS011;5642;50.830;12.082;2023-11-21T07:53:03;2.78;;;1.55;;
11171;SDS011;5642;50.830;12.082;2023-11-21T07:55:31;1.88;;;1.50;;
11171;SDS011;5642;50.830;12.082;2023-11-21T07:57:59;1.40;;;1.30;;
11171;SDS011;5642;50.830;12.082;2023-11-21T08:00:35;1.40;;;1.30;;
11171;SDS011;5642;50.830;12.082;2023-11-21T08:03:06;1.52;;;1.42;;
11171;SDS011;5642;50.830;12.082;2023-11-21T08:05:33;1.50;;;1.40;;
11171;SDS011;5642;50.830;12.082;2023-11-21T08:08:04;1.40;;;1.30;;
11171;SDS011;5642;50.830;12.082;2023-11-21T08:10:31;2.20;;;1.70;;
11171;SDS011;5642;50.830;12.082;2023-11-21T08:12:58;2.55;;;1.60;;
11171;SDS011;5642;50.830;12.082;2023-11-21T08:15:24;2.30;;;1.67;;
11171;SDS011;5642;50.830;12.082;2023-11-21T08:18:00;2.50;;;1.60;;
11171;SDS011;5642;50.830;12.082;2023-11-21T08:20:27;2.85;;;2.10;;
11171;SDS011;5642;50.830;12.082;2023-11-21T08:22:55;2.28;;;1.90;;
11171;SDS011;5642;50.830;12.082;2023-11-21T08:25:23;2.17;;;1.98;;
11171;SDS011;5642;50.830;12.082;2023-11-21T08:27:50;2.40;;;1.95;;
11171;SDS011;5642;50.830;12.082;2023-11-21T08:30:19;4.93;;;1.90;;
11171;SDS011;5642;50.830;12.082;2023-11-21T08:32:49;2.00;;;1.80;;
11171;SDS011;5642;50.830;12.082;2023-11-21T08:35:19;2.28;;;1.77;;
11171;SDS011;5642;50.830;12.082;2023-11-21T08:37:46;2.47;;;1.95;;
11171;SDS011;5642;50.830;12.082;2023-11-21T08:40:13;2.40;;;1.88;;
11171;SDS011;5642;50.830;12.082;2023-11-21T08:42:43;2.35;;;1.90;;
11171;SDS011;5642;50.830;12.082;2023-11-21T08:45:12;2.00;;;1.80;;
11171;SDS011;5642;50.830;12.082;2023-11-21T08:47:39;2.33;;;1.73;;
11171;SDS011;5642;50.830;12.082;2023-11-21T08:50:10;2.53;;;2.10;;
11171;SDS011;5642;50.830;12.082;2023-11-21T08:52:38;1.88;;;1.70;;
11171;SDS011;5642;50.830;12.082;2023-11-21T08:55:07;2.22;;;1.95;;
11171;SDS011;5642;50.830;12.082;2023-11-21T08:57:46;5.30;;;1.90;;
11171;SDS011;5642;50.830;12.082;2023-11-21T09:00:12;3.35;;;2.38;;
11171;SDS011;5642;50.830;12.082;2023-11-21T09:02:44;2.13;;;1.85;;
11171;SDS011;5642;50.830;12.082;2023-11-21T09:05:14;2.65;;;2.00;;
11171;SDS011;5642;50.830;12.082;2023-11-21T09:07:41;1.95;;;1.75;;
11171;SDS011;5642;50.830;12.082;2023-11-21T09:10:08;1.90;;;1.80;;
11171;SDS011;5642;50.830;12.082;2023-11-21T09:12:36;2.95;;;1.90;;
11171;SDS011;5642;50.830;12.082;2023-11-21T09:15:08;2.72;;;2.00;;
11171;SDS011;5642;50.830;12.082;2023-11-21T09:17:42;2.05;;;1.85;;
11171;SDS011;5642;50.830;12.082;2023-11-21T09:20:09;1.60;;;1.50;;
11171;SDS011;5642;50.830;12.082;2023-11-21T09:22:36;2.25;;;1.70;;
11171;SDS011;5642;50.830;12.082;2023-11-21T09:25:03;1.83;;;1.73;;
11171;SDS011;5642;50.830;12.082;2023-11-21T09:27:34;2.28;;;1.70;;
11171;SDS011;5642;50.830;12.082;2023-11-21T09:30:01;2.70;;;1.83;;
11171;SDS011;5642;50.830;12.082;2023-11-21T09:32:32;1.77;;;1.40;;
11171;SDS011;5642;50.830;12.082;2023-11-21T09:35:07;1.60;;;1.50;;
11171;SDS011;5642;50.830;12.082;2023-11-21T09:37:34;1.45;;;1.35;;
11171;SDS011;5642;50.830;12.082;2023-11-21T09:40:04;1.60;;;1.50;;
11171;SDS011;5642;50.830;12.082;2023-11-21T09:43:05;1.42;;;1.33;;
11171;SDS011;5642;50.830;12.082;2023-11-21T09:45:54;1.48;;;1.38;;
11171;SDS011;5642;50.830;12.082;2023-11-21T09:48:25;1.50;;;1.30;;
11171;SDS011;5642;50.830;12.082;2023-11-21T09:50:53;1.40;;;1.30;;
11171;SDS011;5642;50.830;12.082;2023-11-21T09:53:21;1.60;;;1.50;;
11171;SDS011;5642;50.830;12.082;2023-11-21T09:55:56;1.42;;;1.33;;
11171;SDS011;5642;50.830;12.082;2023-11-21T09:58:23;1.45;;;1.35;;
11171;SDS011;5642;50.830;12.082;2023-11-21T10:00:52;1.38;;;1.27;;
11171;SDS011;5642;50.830;12.082;2023-11-21T10:03:21;1.40;;;1.30;;
11171;SDS011;5642;50.830;12.082;2023-11-21T10:05:48;1.25;;;1.15;;
11171;SDS011;5642;50.830;12.082;2023-11-21T10:08:19;1.52;;;1.42;;
11171;SDS011;5642;50.830;12.082;2023-11-21T10:10:51;1.40;;;1.30;;
11171;SDS011;5642;50.830;12.082;2023-11-21T10:13:19;1.70;;;1.30;;
11171;SDS011;5642;50.830;12.082;2023-11-21T10:15:51;1.42;;;1.33;;
11171;SDS011;5642;50.830;12.082;2023-11-21T10:18:19;2.08;;;1.42;;
11171;SDS011;5642;50.830;12.082;2023-11-21T10:20:48;1.60;;;1.50;;
11171;SDS011;5642;50.830;12.082;2023-11-21T10:23:19;1.50;;;1.40;;
11171;SDS011;5642;50.830;12.082;2023-11-21T10:25:48;3.00;;;2.70;;
11171;SDS011;5642;50.830;12.082;2023-11-21T10:28:18;2.05;;;1.92;;
11171;SDS011;5642;50.830;12.082;2023-11-21T10:30:47;1.70;;;1.60;;
11171;SDS011;5642;50.830;12.082;2023-11-21T10:33:14;3.17;;;2.70;;
11171;SDS011;5642;50.830;12.082;2023-11-21T10:38:09;3.25;;;2.20;;
11171;SDS011;5642;50.830;12.082;2023-11-21T10:40:40;2.45;;;2.20;;
11171;SDS011;5642;50.830;12.082;2023-11-21T10:43:15;2.20;;;2.00;;
11171;SDS011;5642;50.830;12.082;2023-11-21T10:45:45;2.08;;;1.92;;
11171;SDS011;5642;50.830;12.082;2023-11-21T10:48:13;2.25;;;2.05;;
11171;SDS011;5642;50.830;12.082;2023-11-21T10:50:46;2.50;;;2.08;;
11171;SDS011;5642;50.830;12.082;2023-11-21T10:53:13;2.90;;;2.33;;
11171;SDS011;5642;50.830;12.082;2023-11-21T10:55:39;2.03;;;1.90;;
11171;SDS011;5642;50.830;12.082;2023-11-21T10:58:06;2.67;;;2.28;;
11171;SDS011;5642;50.830;12.082;2023-11-21T11:00:33;2.10;;;1.90;;
11171;SDS011;5642;50.830;12.082;2023-11-21T11:02:59;2.35;;;2.15;;
11171;SDS011;5642;50.830;12.082;2023-11-21T11:05:27;2.42;;;2.20;;
11171;SDS011;5642;50.830;12.082;2023-11-21T11:08:22;2.95;;;2.65;;
11171;SDS011;5642;50.830;12.082;2023-11-21T11:10:52;3.00;;;2.60;;
11171;SDS011;5642;50.830;12.082;2023-11-21T11:13:27;3.03;;;2.72;;
11171;SDS011;5642;50.830;12.082;2023-11-21T11:16:01;3.90;;;2.75;;
11171;SDS011;5642;50.830;12.082;2023-11-21T11:18:29;2.92;;;2.67;;
11171;SDS011;5642;50.830;12.082;2023-11-21T11:35:36;3.38;;;3.08;;
11171;SDS011;5642;50.830;12.082;2023-11-21T11:38:23;3.53;;;2.90;;
11171;SDS011;5642;50.830;12.082;2023-11-21T11:40:57;3.70;;;2.72;;
11171;SDS011;5642;50.830;12.082;2023-11-21T11:43:32;3.90;;;2.97;;
11171;SDS011;5642;50.830;12.082;2023-11-21T11:46:02;3.53;;;3.08;;
11171;SDS011;5642;50.830;12.082;2023-11-21T11:48:35;3.10;;;2.80;;
11171;SDS011;5642;50.830;12.082;2023-11-21T11:51:11;3.65;;;3.03;;
11171;SDS011;5642;50.830;12.082;2023-11-21T11:53:47;3.55;;;3.00;;
11171;SDS011;5642;50.830;12.082;2023-11-21T11:58:44;3.28;;;2.97;;
11171;SDS011;5642;50.830;12.082;2023-11-21T12:01:15;2.92;;;2.55;;
11171;SDS011;5642;50.830;12.082;2023-11-21T12:03:44;4.47;;;2.90;;
11171;SDS011;5642;50.830;12.082;2023-11-21T12:06:35;3.75;;;3.05;;
11171;SDS011;5642;50.830;12.082;2023-11-21T12:09:02;2.58;;;2.38;;
11171;SDS011;5642;50.830;12.082;2023-11-21T12:11:33;3.05;;;2.72;;
11171;SDS011;5642;50.830;12.082;2023-11-21T12:14:01;2.95;;;2.63;;
11171;SDS011;5642;50.830;12.082;2023-11-21T12:16:32;2.88;;;2.53;;
11171;SDS011;5642;50.830;12.082;2023-11-21T12:18:59;4.00;;;2.70;;
11171;SDS011;5642;50.830;12.082;2023-11-21T12:21:30;2.40;;;2.20;;
11171;SDS011;5642;50.830;12.082;2023-11-21T12:23:58;3.03;;;2.42;;
11171;SDS011;5642;50.830;12.082;2023-11-21T12:26:25;3.63;;;2.25;;
11171;SDS011;5642;50.830;12.082;2023-11-21T12:28:55;3.08;;;2.17;;
11171;SDS011;5642;50.830;12.082;2023-11-21T12:31:22;2.10;;;1.95;;
11171;SDS011;5642;50.830;12.082;2023-11-21T12:33:49;1.90;;;1.80;;
11171;SDS011;5642;50.830;12.082;2023-11-21T12:36:16;1.95;;;1.85;;
11171;SDS011;5642;50.830;12.082;2023-11-21T12:38:42;1.52;;;1.42;;
11171;SDS011;5642;50.830;12.082;2023-11-21T12:41:09;1.60;;;1.50;;
11171;SDS011;5642;50.830;12.082;2023-11-21T12:43:38;1.42;;;1.33;;
11171;SDS011;5642;50.830;12.082;2023-11-21T12:46:08;1.75;;;1.50;;
11171;SDS011;5642;50.830;12.082;2023-11-21T12:48:42;1.80;;;1.70;;
11171;SDS011;5642;50.830;12.082;2023-11-21T12:51:14;1.60;;;1.50;;
11171;SDS011;5642;50.830;12.082;2023-11-21T12:53:41;1.58;;;1.48;;
11171;SDS011;5642;50.830;12.082;2023-11-21T12:56:12;1.50;;;1.40;;
11171;SDS011;5642;50.830;12.082;2023-11-21T12:58:40;1.50;;;1.40;;
11171;SDS011;5642;50.830;12.082;2023-11-21T13:01:14;1.50;;;1.40;;
11171;SDS011;5642;50.830;12.082;2023-11-21T13:03:46;1.60;;;1.50;;
11171;SDS011;5642;50.830;12.082;2023-11-21T13:06:16;1.60;;;1.50;;
11171;SDS011;5642;50.830;12.082;2023-11-21T13:08:46;1.15;;;1.15;;
11171;SDS011;5642;50.830;12.082;2023-11-21T13:11:14;1.20;;;1.20;;
11171;SDS011;5642;50.830;12.082;2023-11-21T13:13:41;0.90;;;0.90;;
11171;SDS011;5642;50.830;12.082;2023-11-21T13:16:09;0.90;;;0.90;;
11171;SDS011;5642;50.830;12.082;2023-11-21T13:18:36;0.98;;;0.98;;
11171;SDS011;5642;50.830;12.082;2023-11-21T13:21:06;0.70;;;0.70;;
11171;SDS011;5642;50.830;12.082;2023-11-21T13:23:40;1.05;;;0.95;;
11171;SDS011;5642;50.830;12.082;2023-11-21T13:26:08;0.90;;;0.90;;
11171;SDS011;5642;50.830;12.082;2023-11-21T13:28:46;1.30;;;1.20;;
11171;SDS011;5642;50.830;12.082;2023-11-21T13:31:13;1.58;;;1.48;;
11171;SDS011;5642;50.830;12.082;2023-11-21T13:33:58;2.22;;;2.03;;
11171;SDS011;5642;50.830;12.082;2023-11-21T13:36:31;2.60;;;2.35;;
11171;SDS011;5642;50.830;12.082;2023-11-21T13:39:03;1.95;;;1.85;;
11171;SDS011;5642;50.830;12.082;2023-11-21T13:41:34;2.78;;;2.55;;
11171;SDS011;5642;50.830;12.082;2023-11-21T13:44:02;3.40;;;2.80;;
11171;SDS011;5642;50.830;12.082;2023-11-21T13:46:48;2.72;;;2.53;;
11171;SDS011;5642;50.830;12.082;2023-11-21T13:49:17;3.03;;;2.80;;
11171;SDS011;5642;50.830;12.082;2023-11-21T13:51:47;3.65;;;3.35;;
11171;SDS011;5642;50.830;12.082;2023-11-21T13:54:22;3.97;;;3.20;;
11171;SDS011;5642;50.830;12.082;2023-11-21T13:56:50;3.47;;;3.17;;
11171;SDS011;5642;50.830;12.082;2023-11-21T13:59:22;3.47;;;3.17;;
11171;SDS011;5642;50.830;12.082;2023-11-21T14:01:56;3.95;;;3.65;;
11171;SDS011;5642;50.830;12.082;2023-11-21T14:04:46;4.05;;;3.65;;
11171;SDS011;5642;50.830;12.082;2023-11-21T14:07:25;3.33;;;3.03;;
11171;SDS011;5642;50.830;12.082;2023-11-21T14:10:12;3.78;;;3.38;;
11171;SDS011;5642;50.830;12.082;2023-11-21T14:12:42;3.10;;;2.80;;
11171;SDS011;5642;50.830;12.082;2023-11-21T14:15:10;2.97;;;2.67;;
11171;SDS011;5642;50.830;12.082;2023-11-21T14:17:39;2.92;;;2.72;;
11171;SDS011;5642;50.830;12.082;2023-11-21T14:20:07;2.80;;;2.60;;
11171;SDS011;5642;50.830;12.082;2023-11-21T14:22:43;3.20;;;2.90;;
11171;SDS011;5642;50.830;12.082;2023-11-21T14:25:14;2.40;;;2.20;;
11171;SDS011;5642;50.830;12.082;2023-11-21T14:27:44;2.60;;;2.40;;
11171;SDS011;5642;50.830;12.082;2023-11-21T14:30:11;2.40;;;2.20;;
11171;SDS011;5642;50.830;12.082;2023-11-21T14:32:39;2.38;;;2.17;;
11171;SDS011;5642;50.830;12.082;2023-11-21T14:35:07;2.40;;;2.20;;
11171;SDS011;5642;50.830;12.082;2023-11-21T14:37:35;1.67;;;1.58;;
11171;SDS011;5642;50.830;12.082;2023-11-21T14:40:00;1.52;;;1.42;;
11171;SDS011;5642;50.830;12.082;2023-11-21T14:42:31;1.30;;;1.20;;
11171;SDS011;5642;50.830;12.082;2023-11-21T14:44:57;1.45;;;1.35;;
11171;SDS011;5642;50.830;12.082;2023-11-21T14:47:29;0.95;;;0.95;;
11171;SDS011;5642;50.830;12.082;2023-11-21T14:49:58;1.20;;;1.10;;
11171;SDS011;5642;50.830;12.082;2023-11-21T14:52:32;1.02;;;0.90;;
11171;SDS011;5642;50.830;12.082;2023-11-21T14:55:00;1.20;;;1.10;;
11171;SDS011;5642;50.830;12.082;2023-11-21T14:57:46;1.13;;;1.02;;
11171;SDS011;5642;50.830;12.082;2023-11-21T15:00:16;1.00;;;1.00;;
11171;SDS011;5642;50.830;12.082;2023-11-21T15:03:03;1.15;;;1.05;;
11171;SDS011;5642;50.830;12.082;2023-11-21T15:05:31;1.40;;;1.30;;
11171;SDS011;5642;50.830;12.082;2023-11-21T15:08:06;1.42;;;1.33;;
11171;SDS011;5642;50.830;12.082;2023-11-21T15:10:50;1.60;;;1.50;;
11171;SDS011;5642;50.830;12.082;2023-11-21T15:13:21;1.60;;;1.50;;
11171;SDS011;5642;50.830;12.082;2023-11-21T15:15:57;1.85;;;1.75;;
11171;SDS011;5642;50.830;12.082;2023-11-21T15:18:29;2.35;;;1.77;;
11171;SDS011;5642;50.830;12.082;2023-11-21T15:20:57;2.50;;;2.10;;
11171;SDS011;5642;50.830;12.082;2023-11-21T15:23:23;2.85;;;2.60;;